createdAt,value
2023-02-19T00:02:28.466Z,15.20
2023-02-19T00:05:03.309Z,15.65
2023-02-19T00:07:38.014Z,15.03
2023-02-19T00:10:12.106Z,18.55
2023-02-19T00:12:45.757Z,20.68
2023-02-19T00:15:19.701Z,21.20
2023-02-19T00:17:53.207Z,21.12
2023-02-19T00:20:26.907Z,13.70
2023-02-19T00:23:00.203Z,22.30
2023-02-19T00:25:33.641Z,12.43
2023-02-19T00:28:09.575Z,14.07
2023-02-19T00:30:43.031Z,16.10
2023-02-19T00:33:17.079Z,16.77
2023-02-19T00:35:50.630Z,16.57
2023-02-19T00:38:23.726Z,14.05
2023-02-19T00:40:57.336Z,12.28
2023-02-19T00:43:31.314Z,19.73
2023-02-19T00:46:04.823Z,13.55
2023-02-19T00:48:38.364Z,17.87
2023-02-19T00:51:12.192Z,15.93
2023-02-19T00:53:46.463Z,15.78
2023-02-19T00:56:19.951Z,11.97
2023-02-19T00:58:53.528Z,11.50
2023-02-19T01:01:27.150Z,11.43
2023-02-19T01:04:00.419Z,16.30
2023-02-19T01:06:34.830Z,15.20
2023-02-19T01:09:09.101Z,12.30
2023-02-19T01:11:42.662Z,18.70
2023-02-19T01:14:16.564Z,14.83
2023-02-19T01:16:50.099Z,23.00
2023-02-19T01:19:23.408Z,16.65
2023-02-19T01:21:56.942Z,20.62
2023-02-19T01:24:30.608Z,14.63
2023-02-19T01:27:03.890Z,18.35
2023-02-19T01:29:37.238Z,18.25
2023-02-19T01:32:11.629Z,18.62
2023-02-19T01:34:45.164Z,15.43
2023-02-19T01:37:18.702Z,18.30
2023-02-19T01:39:52.017Z,16.42
2023-02-19T01:42:25.590Z,10.85
2023-02-19T01:45:33.444Z,16.42
2023-02-19T01:48:11.512Z,17.12
2023-02-19T01:50:48.358Z,17.57
2023-02-19T01:53:25.366Z,13.77
2023-02-19T01:56:01.237Z,14.60
2023-02-19T01:58:37.357Z,17.07
2023-02-19T02:01:12.266Z,15.20
2023-02-19T02:03:49.043Z,14.73
2023-02-19T02:06:25.987Z,16.85
2023-02-19T02:09:18.359Z,16.73
2023-02-19T02:11:54.724Z,15.88
2023-02-19T02:14:30.913Z,17.48
2023-02-19T02:17:08.086Z,18.05
2023-02-19T02:19:55.125Z,16.90
2023-02-19T02:22:30.960Z,17.55
2023-02-19T02:25:39.519Z,17.55
2023-02-19T02:28:32.387Z,14.93
2023-02-19T02:31:09.607Z,13.85
2023-02-19T02:33:46.014Z,19.05
2023-02-19T02:36:22.364Z,17.05
2023-02-19T02:38:57.011Z,17.62
2023-02-19T02:41:30.950Z,12.47
2023-02-19T02:44:07.012Z,12.33
2023-02-19T02:46:43.572Z,25.43
2023-02-19T02:49:20.172Z,13.85
2023-02-19T02:51:55.963Z,13.88
2023-02-19T02:57:22.185Z,16.20
2023-02-19T02:59:57.928Z,15.85
2023-02-19T03:02:33.131Z,12.03
2023-02-19T03:05:26.576Z,16.30
2023-02-19T03:08:04.198Z,15.08
2023-02-19T03:10:40.575Z,11.03
2023-02-19T03:13:33.782Z,16.00
2023-02-19T03:16:27.723Z,13.50
2023-02-19T03:19:21.349Z,17.52
2023-02-19T03:24:59.460Z,13.00
2023-02-19T03:27:37.566Z,14.55
2023-02-19T03:30:16.037Z,14.68
2023-02-19T03:32:52.578Z,16.32
2023-02-19T03:35:29.350Z,12.00
2023-02-19T03:38:07.785Z,17.60
2023-02-19T03:40:44.941Z,15.35
2023-02-19T03:43:22.538Z,14.40
2023-02-19T03:46:01.751Z,18.73
2023-02-19T03:48:37.425Z,14.83
2023-02-19T03:51:18.039Z,13.80
2023-02-19T03:53:56.186Z,12.70
2023-02-19T03:56:32.798Z,13.13
2023-02-19T04:01:43.528Z,12.18
2023-02-19T04:04:21.056Z,9.33
2023-02-19T04:06:57.521Z,11.60
2023-02-19T04:09:35.576Z,11.00
2023-02-19T04:12:12.208Z,15.43
2023-02-19T04:14:48.796Z,14.93
2023-02-19T04:17:24.536Z,15.28
2023-02-19T04:20:00.351Z,15.08
2023-02-19T04:22:35.548Z,12.05
2023-02-19T04:25:10.420Z,11.43
2023-02-19T04:27:45.195Z,12.80
2023-02-19T04:30:18.859Z,14.93
2023-02-19T04:32:52.279Z,9.30
2023-02-19T04:35:25.366Z,20.30
2023-02-19T04:37:59.288Z,14.50
2023-02-19T04:40:32.878Z,13.88
2023-02-19T04:43:06.225Z,18.65
2023-02-19T04:45:41.109Z,14.47
2023-02-19T04:48:15.038Z,17.80
2023-02-19T04:50:48.429Z,18.02
2023-02-19T04:53:21.894Z,16.73
2023-02-19T04:55:55.366Z,12.98
2023-02-19T04:58:28.666Z,16.75
2023-02-19T05:01:02.000Z,18.40
2023-02-19T05:03:35.988Z,13.55
2023-02-19T05:06:12.058Z,13.95
2023-02-19T05:08:45.672Z,15.58
2023-02-19T05:11:19.154Z,14.23
2023-02-19T05:13:52.592Z,13.32
2023-02-19T05:16:26.906Z,16.55
2023-02-19T05:19:00.410Z,14.63
2023-02-19T05:21:34.028Z,13.08
2023-02-19T05:24:08.526Z,15.58
2023-02-19T05:26:44.553Z,11.60
2023-02-19T05:29:17.107Z,12.37
2023-02-19T05:31:50.781Z,11.35
2023-02-19T05:34:24.383Z,12.93
2023-02-19T05:36:58.982Z,11.22
2023-02-19T05:39:32.319Z,14.23
2023-02-19T05:42:08.365Z,11.97
2023-02-19T05:44:43.035Z,12.60
2023-02-19T05:47:17.803Z,15.43
2023-02-19T05:49:51.254Z,14.45
2023-02-19T05:52:25.134Z,10.72
2023-02-19T05:54:58.711Z,12.00
2023-02-19T05:57:32.174Z,14.07
2023-02-19T06:00:07.692Z,10.03
2023-02-19T06:02:42.744Z,13.32
2023-02-19T06:05:17.219Z,12.43
2023-02-19T06:07:51.493Z,12.07
2023-02-19T06:10:24.947Z,10.18
2023-02-19T06:12:58.323Z,11.05
2023-02-19T06:15:31.731Z,10.90
2023-02-19T06:18:06.011Z,13.38
2023-02-19T06:20:39.301Z,13.83
2023-02-19T06:23:12.663Z,12.82
2023-02-19T06:25:46.122Z,12.47
2023-02-19T06:28:19.745Z,8.75
2023-02-19T06:30:53.504Z,12.88
2023-02-19T06:33:27.590Z,9.45
2023-02-19T06:36:02.824Z,11.68
2023-02-19T06:38:36.332Z,13.35
2023-02-19T06:41:11.314Z,11.25
2023-02-19T06:43:44.960Z,11.63
2023-02-19T06:46:18.603Z,11.90
2023-02-19T06:48:52.808Z,13.65
2023-02-19T06:51:29.019Z,10.45
2023-02-19T06:54:03.311Z,12.03
2023-02-19T06:56:39.596Z,11.10
2023-02-19T06:59:17.022Z,11.10
2023-02-19T07:01:50.763Z,9.98
2023-02-19T07:04:24.611Z,12.43
2023-02-19T07:06:59.970Z,9.38
2023-02-19T07:09:33.693Z,13.78
2023-02-19T07:12:08.535Z,10.00
2023-02-19T07:14:42.134Z,11.53
2023-02-19T07:17:15.762Z,11.30
2023-02-19T07:19:48.807Z,12.78
2023-02-19T07:22:23.309Z,12.33
2023-02-19T07:24:56.956Z,12.07
2023-02-19T07:27:30.552Z,14.00
2023-02-19T07:30:03.859Z,10.85
2023-02-19T07:32:37.323Z,12.55
2023-02-19T07:35:11.498Z,12.40
2023-02-19T07:37:44.975Z,11.38
2023-02-19T07:40:18.774Z,9.53
2023-02-19T07:42:52.109Z,10.85
2023-02-19T07:45:25.594Z,11.68
2023-02-19T07:47:58.960Z,11.50
2023-02-19T07:50:32.818Z,13.68
2023-02-19T07:53:06.205Z,11.40
2023-02-19T07:55:39.705Z,10.72
2023-02-19T07:58:13.039Z,9.35
2023-02-19T08:00:46.910Z,12.07
2023-02-19T08:03:20.480Z,17.07
2023-02-19T08:05:55.163Z,11.10
2023-02-19T08:08:48.720Z,13.03
2023-02-19T08:11:39.651Z,13.38
2023-02-19T08:14:13.215Z,9.43
2023-02-19T08:16:52.528Z,14.85
2023-02-19T08:19:26.350Z,9.03
2023-02-19T08:22:00.039Z,13.20
2023-02-19T08:24:34.033Z,10.72
2023-02-19T08:27:07.578Z,11.35
2023-02-19T08:29:41.075Z,10.93
2023-02-19T08:32:14.699Z,7.30
2023-02-19T08:34:47.992Z,17.55
2023-02-19T08:37:21.359Z,10.63
2023-02-19T08:39:54.797Z,12.18
2023-02-19T08:42:29.433Z,14.58
2023-02-19T08:45:02.765Z,11.88
2023-02-19T08:47:38.337Z,13.85
2023-02-19T08:50:12.745Z,11.90
2023-02-19T08:52:46.083Z,14.90
2023-02-19T08:55:19.934Z,10.50
2023-02-19T08:57:53.605Z,13.05
2023-02-19T09:00:27.526Z,10.28
2023-02-19T09:03:01.778Z,10.25
2023-02-19T09:05:35.293Z,12.05
2023-02-19T09:08:08.522Z,10.98
2023-02-19T09:10:42.122Z,10.78
2023-02-19T09:13:17.990Z,14.35
2023-02-19T09:15:51.733Z,10.40
2023-02-19T09:18:25.749Z,12.53
2023-02-19T09:21:02.772Z,11.73
2023-02-19T09:23:37.550Z,14.53
2023-02-19T09:26:13.662Z,13.38
2023-02-19T09:28:47.891Z,9.95
2023-02-19T09:31:21.364Z,45.03
2023-02-19T09:33:54.853Z,19.32
2023-02-19T09:36:28.287Z,17.42
2023-02-19T09:39:02.125Z,10.20
2023-02-19T09:41:38.405Z,15.75
2023-02-19T09:44:14.675Z,13.58
2023-02-19T09:46:50.467Z,12.65
2023-02-19T09:49:26.973Z,12.75
2023-02-19T09:52:04.314Z,10.32
2023-02-19T09:54:39.632Z,12.13
2023-02-19T09:57:16.176Z,11.35
2023-02-19T09:59:52.807Z,14.15
2023-02-19T10:02:27.749Z,9.00
2023-02-19T10:05:02.772Z,13.00
2023-02-19T10:07:40.580Z,14.28
2023-02-19T10:10:34.719Z,13.08
2023-02-19T10:13:21.828Z,14.80
2023-02-19T10:15:58.883Z,14.45
2023-02-19T10:18:35.496Z,14.68
2023-02-19T10:21:10.055Z,10.05
2023-02-19T10:23:45.415Z,12.28
2023-02-19T10:26:18.943Z,11.95
2023-02-19T10:28:54.305Z,13.85
2023-02-19T10:31:28.215Z,11.53
2023-02-19T10:34:03.647Z,13.55
2023-02-19T10:36:39.779Z,13.43
2023-02-19T10:42:22.734Z,16.32
2023-02-19T10:45:01.418Z,15.68
2023-02-19T10:47:36.102Z,12.53
2023-02-19T10:50:19.780Z,10.88
2023-02-19T10:52:57.335Z,9.30
2023-02-19T10:55:37.732Z,17.20
2023-02-19T10:58:28.726Z,10.48
2023-02-19T11:01:15.134Z,13.48
2023-02-19T11:03:49.943Z,13.03
2023-02-19T11:06:26.009Z,13.30
2023-02-19T11:09:02.199Z,11.77
2023-02-19T11:11:38.442Z,9.25
2023-02-19T11:14:19.849Z,10.95
2023-02-19T11:16:56.954Z,14.83
2023-02-19T11:19:37.975Z,12.95
2023-02-19T11:22:31.906Z,17.35
2023-02-19T11:25:09.906Z,15.65
2023-02-19T11:27:58.621Z,15.53
2023-02-19T11:30:43.376Z,13.68
2023-02-19T11:33:28.568Z,11.85
2023-02-19T11:36:20.382Z,14.07
2023-02-19T11:38:54.098Z,13.45
2023-02-19T11:41:54.513Z,15.32
2023-02-19T11:44:34.347Z,14.23
2023-02-19T11:47:18.698Z,13.13
2023-02-19T11:49:55.070Z,13.40
2023-02-19T11:52:32.634Z,12.00
2023-02-19T11:55:11.458Z,14.80
2023-02-19T11:57:48.817Z,13.28
2023-02-19T12:00:28.456Z,17.25
2023-02-19T12:03:31.226Z,17.85
2023-02-19T12:06:16.328Z,14.47
2023-02-19T12:09:35.623Z,12.18
2023-02-19T12:12:17.326Z,14.78
2023-02-19T12:15:45.706Z,13.70
2023-02-19T12:18:33.968Z,14.83
2023-02-19T12:21:16.085Z,12.80
2023-02-19T12:24:04.503Z,14.43
2023-02-19T12:26:41.445Z,16.85
2023-02-19T12:29:22.881Z,20.70
2023-02-19T12:32:31.661Z,13.62
2023-02-19T12:35:30.916Z,15.20
2023-02-19T12:38:10.904Z,11.70
2023-02-19T12:40:51.713Z,13.83
2023-02-19T12:43:26.362Z,15.50
2023-02-19T12:46:03.069Z,13.28
2023-02-19T12:48:39.905Z,12.58
2023-02-19T12:51:16.286Z,16.20
2023-02-19T12:53:52.249Z,15.25
2023-02-19T12:56:28.748Z,13.80
2023-02-19T12:59:05.246Z,14.28
2023-02-19T13:01:42.612Z,15.45
2023-02-19T13:07:00.445Z,13.28
2023-02-19T13:09:37.450Z,15.10
2023-02-19T13:12:15.498Z,19.35
2023-02-19T13:14:52.473Z,13.93
2023-02-19T13:17:30.054Z,30.48
2023-02-19T13:22:58.191Z,19.23
2023-02-19T13:25:35.352Z,15.35
2023-02-19T13:28:24.467Z,16.17
2023-02-19T13:31:09.416Z,16.73
2023-02-19T13:33:50.977Z,9.98
2023-02-19T13:36:27.427Z,16.70
2023-02-19T13:39:03.870Z,14.53
2023-02-19T13:41:41.070Z,14.87
2023-02-19T13:44:20.885Z,10.95
2023-02-19T13:46:57.057Z,17.00
2023-02-19T13:49:50.612Z,13.65
2023-02-19T13:52:41.812Z,15.20
2023-02-19T13:55:51.602Z,17.75
2023-02-19T13:59:00.578Z,16.87
2023-02-19T14:02:18.991Z,19.07
2023-02-19T14:04:59.489Z,18.40
2023-02-19T14:07:55.386Z,16.93
2023-02-19T14:11:06.100Z,15.23
2023-02-19T14:14:28.495Z,16.37
2023-02-19T14:17:08.620Z,15.55
2023-02-19T14:19:54.769Z,16.00
2023-02-19T14:22:51.480Z,13.78
2023-02-19T14:25:47.015Z,17.05
2023-02-19T14:28:44.752Z,17.75
2023-02-19T14:31:31.162Z,16.50
2023-02-19T14:34:07.561Z,17.00
2023-02-19T14:36:49.231Z,13.78
2023-02-19T14:39:24.986Z,21.75
2023-02-19T14:42:01.564Z,14.38
2023-02-19T14:44:40.168Z,17.45
2023-02-19T14:47:18.892Z,16.25
2023-02-19T14:49:56.644Z,17.55
2023-02-19T14:52:33.185Z,17.20
2023-02-19T14:55:09.952Z,16.15
2023-02-19T14:57:46.502Z,19.07
2023-02-19T15:00:28.860Z,15.30
2023-02-19T15:03:02.928Z,21.45
2023-02-19T15:05:38.943Z,16.87
2023-02-19T15:08:15.472Z,25.57
2023-02-19T15:10:49.533Z,16.45
2023-02-19T15:13:25.811Z,20.05
2023-02-19T15:16:00.278Z,15.60
2023-02-19T15:18:36.874Z,18.65
2023-02-19T15:21:15.582Z,22.22
2023-02-19T15:23:49.564Z,18.15
2023-02-19T15:26:25.696Z,19.92
2023-02-19T15:29:04.874Z,20.48
2023-02-19T15:31:40.299Z,15.70
2023-02-19T15:34:19.478Z,21.68
2023-02-19T15:36:55.471Z,20.12
2023-02-19T15:39:32.796Z,17.37
2023-02-19T15:42:09.390Z,12.30
2023-02-19T15:44:46.849Z,19.17
2023-02-19T15:47:25.018Z,22.17
2023-02-19T15:50:02.548Z,25.17
2023-02-19T15:55:23.459Z,16.60
2023-02-19T15:57:59.655Z,14.20
2023-02-19T16:00:37.630Z,22.20
2023-02-19T16:03:16.714Z,19.32
2023-02-19T16:06:00.480Z,18.30
2023-02-19T16:08:36.013Z,18.12
2023-02-19T16:11:22.729Z,17.48
2023-02-19T16:14:15.438Z,21.70
2023-02-19T16:16:51.406Z,15.60
2023-02-19T16:19:28.599Z,19.60
2023-02-19T16:22:02.410Z,17.92
2023-02-19T16:24:38.530Z,16.30
2023-02-19T16:27:12.433Z,15.70
2023-02-19T16:32:29.798Z,16.42
2023-02-19T16:35:03.456Z,18.65
2023-02-19T16:37:40.842Z,20.08
2023-02-19T16:40:56.609Z,20.10
2023-02-19T16:43:34.343Z,18.70
2023-02-19T16:46:11.723Z,17.60
2023-02-19T16:48:45.590Z,12.58
2023-02-19T16:51:23.430Z,18.87
2023-02-19T16:54:00.145Z,19.02
2023-02-19T16:56:33.815Z,17.95
2023-02-19T16:59:08.180Z,19.27
2023-02-19T17:01:42.285Z,12.10
2023-02-19T17:04:16.458Z,17.95
2023-02-19T17:06:50.178Z,19.92
2023-02-19T17:09:23.919Z,25.97
2023-02-19T17:11:57.630Z,17.12
2023-02-19T17:14:31.211Z,19.60
2023-02-19T17:17:05.390Z,15.88
2023-02-19T17:19:40.285Z,18.00
2023-02-19T17:22:16.449Z,17.17
2023-02-19T17:24:50.041Z,22.35
2023-02-19T17:27:23.762Z,16.65
2023-02-19T17:29:57.215Z,19.20
2023-02-19T17:32:30.482Z,23.07
2023-02-19T17:35:03.976Z,25.90
2023-02-19T17:37:37.594Z,19.42
2023-02-19T17:40:31.869Z,20.97
2023-02-19T17:42:56.489Z,25.27
2023-02-19T17:45:30.294Z,19.37
2023-02-19T17:48:04.138Z,18.55
2023-02-19T17:50:38.946Z,16.05
2023-02-19T17:53:12.617Z,21.52
2023-02-19T17:55:46.345Z,21.17
2023-02-19T17:58:19.912Z,22.58
2023-02-19T18:00:53.925Z,21.90
2023-02-19T18:03:27.819Z,18.75
2023-02-19T18:06:01.548Z,19.77
2023-02-19T18:08:35.114Z,23.00
2023-02-19T18:11:09.489Z,19.17
2023-02-19T18:13:43.015Z,17.62
2023-02-19T18:16:17.387Z,18.98
2023-02-19T18:18:51.154Z,23.22
2023-02-19T18:21:26.007Z,19.10
2023-02-19T18:23:59.546Z,22.15
2023-02-19T18:26:33.773Z,27.35
2023-02-19T18:29:07.999Z,23.18
2023-02-19T18:31:41.833Z,27.30
2023-02-19T18:34:20.247Z,18.15
2023-02-19T18:36:53.742Z,21.60
2023-02-19T18:39:27.137Z,19.70
2023-02-19T18:42:01.221Z,25.30
2023-02-19T18:44:34.668Z,26.15
2023-02-19T18:47:08.751Z,18.30
2023-02-19T18:49:43.772Z,18.77
2023-02-19T18:52:19.428Z,25.60
2023-02-19T18:54:53.596Z,19.25
2023-02-19T18:57:27.693Z,22.67
2023-02-19T19:00:01.095Z,23.02
2023-02-19T19:02:48.405Z,22.13
2023-02-19T19:05:11.891Z,23.40
2023-02-19T19:07:45.490Z,25.32
2023-02-19T19:10:20.279Z,21.10
2023-02-19T19:12:54.704Z,21.25
2023-02-19T19:15:29.861Z,23.07
2023-02-19T19:18:03.650Z,29.18
2023-02-19T19:20:37.236Z,32.53
2023-02-19T19:23:10.728Z,17.65
2023-02-19T19:25:44.195Z,24.95
2023-02-19T19:28:17.759Z,24.30
2023-02-19T19:30:51.228Z,30.88
2023-02-19T19:33:27.978Z,35.63
2023-02-19T19:36:00.874Z,33.30
2023-02-19T19:38:34.548Z,30.08
2023-02-19T19:41:08.729Z,28.27
2023-02-19T19:43:41.760Z,31.00
2023-02-19T19:46:19.330Z,31.33
2023-02-19T19:48:54.096Z,31.07
2023-02-19T19:51:33.340Z,32.98
2023-02-19T19:54:10.846Z,33.35
2023-02-19T19:56:45.614Z,31.57
2023-02-19T19:59:19.856Z,34.78
2023-02-19T20:01:57.229Z,32.53
2023-02-19T20:04:31.823Z,33.60
2023-02-19T20:07:05.550Z,32.45
2023-02-19T20:09:38.971Z,27.85
2023-02-19T20:12:13.162Z,29.85
2023-02-19T20:14:48.053Z,34.90
2023-02-19T20:17:24.954Z,32.10
2023-02-19T20:19:58.638Z,31.60
2023-02-19T20:22:32.261Z,28.12
2023-02-19T20:25:06.357Z,29.52
2023-02-19T20:27:40.130Z,29.67
2023-02-19T20:30:17.787Z,29.48
2023-02-19T20:32:51.735Z,24.30
2023-02-19T20:35:28.081Z,17.75
2023-02-19T20:38:01.680Z,25.52
2023-02-19T20:40:36.329Z,22.50
2023-02-19T20:43:09.991Z,18.48
2023-02-19T20:45:45.730Z,22.70
2023-02-19T20:48:20.086Z,32.93
2023-02-19T20:50:55.919Z,20.43
2023-02-19T20:53:30.188Z,26.07
2023-02-19T20:56:03.746Z,15.85
2023-02-19T20:58:37.524Z,20.50
2023-02-19T21:01:11.952Z,22.30
2023-02-19T21:03:45.499Z,22.73
2023-02-19T21:06:18.831Z,16.23
2023-02-19T21:08:52.610Z,23.40
2023-02-19T21:11:26.389Z,20.88
2023-02-19T21:14:00.083Z,18.12
2023-02-19T21:16:34.629Z,29.63
2023-02-19T21:19:08.107Z,18.85
2023-02-19T21:21:41.680Z,22.50
2023-02-19T21:24:16.669Z,26.20
2023-02-19T21:26:52.471Z,26.42
2023-02-19T21:29:26.179Z,20.35
2023-02-19T21:32:00.190Z,25.70
2023-02-19T21:34:33.619Z,27.10
2023-02-19T21:37:07.251Z,27.00
2023-02-19T21:39:42.408Z,26.40
2023-02-19T21:42:16.174Z,32.58
2023-02-19T21:44:49.604Z,29.45
2023-02-19T21:47:22.873Z,28.12
2023-02-19T21:49:56.667Z,23.12
2023-02-19T21:52:31.267Z,20.80
2023-02-19T21:55:04.527Z,25.97
2023-02-19T21:57:37.893Z,27.90
2023-02-19T22:00:13.331Z,24.02
2023-02-19T22:02:46.749Z,23.10
2023-02-19T22:05:20.201Z,25.80
2023-02-19T22:07:54.009Z,29.37
2023-02-19T22:10:27.531Z,32.23
2023-02-19T22:13:01.035Z,26.05
2023-02-19T22:15:34.613Z,28.30
2023-02-19T22:18:08.544Z,29.18
2023-02-19T22:20:42.272Z,20.23
2023-02-19T22:23:15.736Z,23.32
2023-02-19T22:25:49.282Z,22.13
2023-02-19T22:28:23.168Z,23.55
2023-02-19T22:30:56.621Z,26.42
2023-02-19T22:33:30.131Z,25.68
2023-02-19T22:36:04.086Z,24.72
2023-02-19T22:38:37.549Z,17.48
2023-02-19T22:41:11.229Z,28.87
2023-02-19T22:43:44.641Z,28.92
2023-02-19T22:46:20.615Z,26.25
2023-02-19T22:48:54.253Z,27.62
2023-02-19T22:51:28.044Z,28.90
2023-02-19T22:54:02.359Z,28.67
2023-02-19T22:56:36.179Z,23.73
2023-02-19T22:59:09.728Z,26.40
2023-02-19T23:01:43.040Z,31.00
2023-02-19T23:04:16.783Z,27.02
2023-02-19T23:06:50.674Z,28.12
2023-02-19T23:09:26.507Z,28.40
2023-02-19T23:12:05.969Z,26.07
2023-02-19T23:14:39.459Z,23.52
2023-02-19T23:17:13.285Z,24.52
2023-02-19T23:19:47.324Z,30.92
2023-02-19T23:22:20.909Z,31.52
2023-02-19T23:24:54.604Z,29.25
2023-02-19T23:27:28.683Z,27.98
2023-02-19T23:30:02.029Z,25.65
2023-02-19T23:32:35.485Z,31.27
2023-02-19T23:35:09.382Z,25.17
2023-02-19T23:37:42.912Z,28.85
2023-02-19T23:40:17.303Z,28.42
2023-02-19T23:42:52.283Z,33.20
2023-02-19T23:45:25.821Z,36.55
2023-02-19T23:47:59.281Z,33.80
2023-02-19T23:50:32.845Z,26.60
2023-02-19T23:53:06.712Z,28.35
2023-02-19T23:55:41.707Z,24.77
2023-02-19T23:58:15.479Z,26.55
